Time;durP1;ratioP1;P1;durP2;ratioP2;P2;SDS_P1;SDS_P2;PMS_P1;PMS_P2;Temp;Humidity;BMP_temperature;BMP_pressure;BME280_temperature;BME280_humidity;BME280_pressure;Samples;Min_cycle;Max_cycle;Signal;HPM_P1;HPM_P2
2022/07/05 00:00:16;;;;;;;1.10;1.00;;;;;;;;;;5099630;28;20276;-60
2022/07/05 00:02:45;;;;;;;1.30;1.20;;;;;;;;;;5099260;28;20223;-60
2022/07/05 00:05:13;;;;;;;1.05;0.95;;;;;;;;;;5099148;28;20203;-61
2022/07/05 00:07:41;;;;;;;1.05;1.02;;;;;;;;;;5099975;28;20647;-60
2022/07/05 00:10:10;;;;;;;1.58;1.00;;;;;;;;;;5099331;28;20203;-61
2022/07/05 00:12:38;;;;;;;1.45;1.20;;;;;;;;;;5099278;28;20598;-60
2022/07/05 00:15:05;;;;;;;2.10;1.30;;;;;;;;;;5098800;28;20200;-60
2022/07/05 00:17:33;;;;;;;1.63;1.33;;;;;;;;;;5099126;28;20242;-60
2022/07/05 00:20:00;;;;;;;1.60;1.23;;;;;;;;;;5099077;28;20207;-60
2022/07/05 00:22:28;;;;;;;1.27;0.95;;;;;;;;;;5099519;28;20224;-61
2022/07/05 00:24:55;;;;;;;1.00;0.90;;;;;;;;;;5099334;28;20243;-60
2022/07/05 00:27:24;;;;;;;1.20;1.10;;;;;;;;;;5099204;28;20601;-60
2022/07/05 00:29:52;;;;;;;1.80;1.10;;;;;;;;;;5099035;28;20230;-61
2022/07/05 00:32:19;;;;;;;1.70;1.17;;;;;;;;;;5098737;28;20208;-60
2022/07/05 00:34:47;;;;;;;1.63;1.20;;;;;;;;;;5099106;28;20261;-60
2022/07/05 00:37:14;;;;;;;1.00;1.00;;;;;;;;;;5098833;28;20249;-60
2022/07/05 00:39:42;;;;;;;1.20;1.10;;;;;;;;;;5098916;28;20235;-61
2022/07/05 00:42:09;;;;;;;1.08;1.00;;;;;;;;;;5099023;28;20228;-60
2022/07/05 00:44:41;;;;;;;1.40;1.30;;;;;;;;;;5098813;28;20282;-61
2022/07/05 00:47:09;;;;;;;1.25;1.10;;;;;;;;;;5098467;28;20218;-60
2022/07/05 00:49:37;;;;;;;1.20;1.10;;;;;;;;;;5098367;28;20211;-60
2022/07/05 00:52:08;;;;;;;1.08;1.00;;;;;;;;;;5098390;28;20301;-60
2022/07/05 00:54:38;;;;;;;1.15;1.05;;;;;;;;;;5098091;28;20578;-60
2022/07/05 00:57:06;;;;;;;1.52;1.00;;;;;;;;;;5098611;28;20243;-61
2022/07/05 00:59:34;;;;;;;0.90;0.90;;;;;;;;;;5098580;28;20219;-61
2022/07/05 01:02:03;;;;;;;1.10;1.00;;;;;;;;;;5097848;28;20266;-61
2022/07/05 01:04:30;;;;;;;1.05;1.00;;;;;;;;;;5098502;28;20243;-61
2022/07/05 01:06:58;;;;;;;1.33;1.00;;;;;;;;;;5098307;28;20243;-60
2022/07/05 01:09:26;;;;;;;1.42;1.05;;;;;;;;;;5097719;28;20264;-60
2022/07/05 01:11:54;;;;;;;1.02;1.02;;;;;;;;;;5097898;28;20243;-60
2022/07/05 01:14:24;;;;;;;0.98;0.98;;;;;;;;;;5098221;28;20332;-61
2022/07/05 01:16:52;;;;;;;0.88;0.88;;;;;;;;;;5098087;28;20203;-60
2022/07/05 01:19:21;;;;;;;1.20;1.00;;;;;;;;;;5098425;28;20243;-61
2022/07/05 01:21:49;;;;;;;1.58;1.20;;;;;;;;;;5098189;28;20277;-60
2022/07/05 01:24:19;;;;;;;1.00;1.00;;;;;;;;;;5098212;28;20499;-60
2022/07/05 01:26:48;;;;;;;1.23;1.00;;;;;;;;;;5098113;28;20286;-61
2022/07/05 01:29:15;;;;;;;1.10;1.10;;;;;;;;;;5096972;28;20637;-59
2022/07/05 01:31:43;;;;;;;1.33;1.00;;;;;;;;;;5097789;28;20283;-59
2022/07/05 01:34:11;;;;;;;1.23;1.20;;;;;;;;;;5098051;28;20239;-60
2022/07/05 01:36:39;;;;;;;1.15;1.10;;;;;;;;;;5098146;28;20203;-61
2022/07/05 01:39:07;;;;;;;1.15;0.98;;;;;;;;;;5098471;28;20233;-60
2022/07/05 01:41:36;;;;;;;2.13;0.93;;;;;;;;;;5097882;28;20219;-60
2022/07/05 01:44:04;;;;;;;1.25;1.10;;;;;;;;;;5098131;28;20203;-61
2022/07/05 01:46:36;;;;;;;1.00;0.90;;;;;;;;;;5097648;28;20219;-60
2022/07/05 01:49:05;;;;;;;1.45;0.90;;;;;;;;;;5097446;28;20247;-59
2022/07/05 01:51:35;;;;;;;0.80;0.80;;;;;;;;;;5096785;28;20255;-59
2022/07/05 01:54:02;;;;;;;0.80;0.80;;;;;;;;;;5097381;28;20208;-61
2022/07/05 01:56:31;;;;;;;1.20;1.10;;;;;;;;;;5097407;28;20211;-60
2022/07/05 01:59:00;;;;;;;1.30;0.80;;;;;;;;;;5097841;28;20247;-61
2022/07/05 02:01:35;;;;;;;1.33;1.23;;;;;;;;;;5098024;28;20266;-60
2022/07/05 02:04:02;;;;;;;1.73;1.00;;;;;;;;;;5097616;28;20242;-60
2022/07/05 02:06:30;;;;;;;0.90;0.90;;;;;;;;;;5097057;28;20264;-60
2022/07/05 02:08:57;;;;;;;0.90;0.90;;;;;;;;;;5097317;28;20239;-60
2022/07/05 02:11:25;;;;;;;0.82;0.82;;;;;;;;;;5097499;28;20208;-59
2022/07/05 02:13:52;;;;;;;1.70;0.82;;;;;;;;;;5100315;28;20595;-60
2022/07/05 02:16:25;;;;;;;0.88;0.88;;;;;;;;;;5101521;28;20659;-59
2022/07/05 02:18:52;;;;;;;1.10;1.00;;;;;;;;;;5101254;28;20203;-60
2022/07/05 02:21:20;;;;;;;1.25;0.90;;;;;;;;;;5101797;28;20246;-59
2022/07/05 02:23:47;;;;;;;0.90;0.90;;;;;;;;;;5101384;28;20269;-59
2022/07/05 02:26:15;;;;;;;1.05;0.93;;;;;;;;;;5101315;28;20251;-61
2022/07/05 02:28:42;;;;;;;1.10;1.00;;;;;;;;;;5101432;28;20238;-60
2022/07/05 02:31:10;;;;;;;0.85;0.85;;;;;;;;;;5102120;28;20562;-60
2022/07/05 02:33:39;;;;;;;1.10;1.00;;;;;;;;;;5101104;28;20239;-60
2022/07/05 02:36:08;;;;;;;1.42;0.93;;;;;;;;;;5101197;28;20246;-60
2022/07/05 02:38:36;;;;;;;1.15;1.05;;;;;;;;;;5101306;28;20218;-61
2022/07/05 02:41:06;;;;;;;1.35;0.98;;;;;;;;;;5101211;28;20233;-60
2022/07/05 02:43:34;;;;;;;1.10;1.00;;;;;;;;;;5101174;28;20227;-59
2022/07/05 02:46:01;;;;;;;0.90;0.90;;;;;;;;;;5100577;28;20579;-61
2022/07/05 02:48:29;;;;;;;0.93;0.90;;;;;;;;;;5100975;28;20298;-60
2022/07/05 02:50:58;;;;;;;0.90;0.90;;;;;;;;;;5101075;28;20260;-60
2022/07/05 02:53:26;;;;;;;0.90;0.90;;;;;;;;;;5100954;28;20271;-60
2022/07/05 02:55:53;;;;;;;0.98;0.93;;;;;;;;;;5100728;28;20204;-60
2022/07/05 02:58:22;;;;;;;0.93;0.93;;;;;;;;;;5100766;28;20203;-61
2022/07/05 03:00:50;;;;;;;1.05;1.00;;;;;;;;;;5100813;28;20211;-60
2022/07/05 03:03:18;;;;;;;1.05;0.85;;;;;;;;;;5100448;28;20227;-59
2022/07/05 03:05:46;;;;;;;0.90;0.90;;;;;;;;;;5100840;28;20256;-60
2022/07/05 03:08:14;;;;;;;2.33;1.00;;;;;;;;;;5100887;28;20239;-59
2022/07/05 03:10:42;;;;;;;0.90;0.90;;;;;;;;;;5100314;28;20300;-60
2022/07/05 03:13:10;;;;;;;3.67;1.00;;;;;;;;;;5099697;28;20276;-60
2022/07/05 03:15:37;;;;;;;1.30;0.82;;;;;;;;;;5100571;28;20203;-60
2022/07/05 03:18:05;;;;;;;1.10;1.00;;;;;;;;;;5100439;28;20576;-60
2022/07/05 03:20:32;;;;;;;1.08;0.98;;;;;;;;;;5100732;28;20532;-60
2022/07/05 03:23:00;;;;;;;12.93;0.90;;;;;;;;;;5100434;28;20285;-60
2022/07/05 03:25:29;;;;;;;0.80;0.80;;;;;;;;;;5099849;28;20222;-61
2022/07/05 03:27:56;;;;;;;0.95;0.90;;;;;;;;;;5100821;28;20578;-60
2022/07/05 03:30:24;;;;;;;0.90;0.90;;;;;;;;;;5100129;28;20253;-60
2022/07/05 03:32:51;;;;;;;1.23;0.80;;;;;;;;;;5099693;28;20207;-61
2022/07/05 03:35:19;;;;;;;1.30;0.93;;;;;;;;;;5100109;28;20280;-60
2022/07/05 03:37:47;;;;;;;1.00;1.00;;;;;;;;;;5099627;28;20585;-60
2022/07/05 03:40:14;;;;;;;0.95;0.90;;;;;;;;;;5099643;28;20590;-60
2022/07/05 03:42:43;;;;;;;1.45;1.08;;;;;;;;;;5099089;28;20318;-59
2022/07/05 03:45:11;;;;;;;0.95;0.95;;;;;;;;;;5099858;28;20269;-61
2022/07/05 03:47:39;;;;;;;0.80;0.80;;;;;;;;;;5098753;28;20203;-60
2022/07/05 03:50:07;;;;;;;1.42;0.90;;;;;;;;;;5099020;28;20204;-59
2022/07/05 03:52:35;;;;;;;0.95;0.95;;;;;;;;;;5098610;28;20249;-60
2022/07/05 03:55:02;;;;;;;1.30;0.90;;;;;;;;;;5099405;28;20247;-60
2022/07/05 03:57:30;;;;;;;0.82;0.82;;;;;;;;;;5098529;28;20292;-60
2022/07/05 03:59:58;;;;;;;1.27;0.80;;;;;;;;;;5099095;28;20239;-61
2022/07/05 04:02:26;;;;;;;0.90;0.90;;;;;;;;;;5098494;28;20583;-61
2022/07/05 04:04:53;;;;;;;0.80;0.80;;;;;;;;;;5098536;28;20203;-60
2022/07/05 04:07:21;;;;;;;0.95;0.90;;;;;;;;;;5098380;28;20203;-61
2022/07/05 04:09:48;;;;;;;1.15;1.00;;;;;;;;;;5078654;28;20239;-61
2022/07/05 04:12:16;;;;;;;0.90;0.90;;;;;;;;;;5078647;28;20240;-60
2022/07/05 04:14:43;;;;;;;0.85;0.85;;;;;;;;;;5078513;28;20531;-60
2022/07/05 04:17:13;;;;;;;1.00;1.00;;;;;;;;;;5078798;28;20243;-61
2022/07/05 04:19:40;;;;;;;0.88;0.88;;;;;;;;;;5078304;28;20212;-61
2022/07/05 04:22:07;;;;;;;1.10;0.98;;;;;;;;;;5078201;28;20243;-61
2022/07/05 04:25:16;;;;;;;1.20;1.10;;;;;;;;;;5078526;28;20239;-61
2022/07/05 04:27:23;;;;;;;1.00;1.00;;;;;;;;;;5077281;28;20200;-60
2022/07/05 04:29:51;;;;;;;0.80;0.80;;;;;;;;;;5077453;28;20254;-60
2022/07/05 04:32:19;;;;;;;0.90;0.90;;;;;;;;;;5077540;28;20232;-61
2022/07/05 04:34:47;;;;;;;0.90;0.90;;;;;;;;;;5077571;28;20244;-60
2022/07/05 04:37:15;;;;;;;1.02;1.00;;;;;;;;;;5095804;28;20196;-60
2022/07/05 04:39:42;;;;;;;0.90;0.90;;;;;;;;;;5096474;28;20212;-61
2022/07/05 04:42:09;;;;;;;0.80;0.80;;;;;;;;;;5097462;28;20211;-61
2022/07/05 04:44:37;;;;;;;1.20;1.10;;;;;;;;;;5098261;28;20307;-60
2022/07/05 04:47:05;;;;;;;0.82;0.82;;;;;;;;;;5096553;28;20207;-61
2022/07/05 04:49:34;;;;;;;1.13;0.90;;;;;;;;;;5096341;28;20200;-61
2022/07/05 04:52:01;;;;;;;1.02;0.93;;;;;;;;;;5095643;28;20266;-60
2022/07/05 04:54:29;;;;;;;1.17;1.08;;;;;;;;;;5096250;28;20239;-60
2022/07/05 04:56:56;;;;;;;0.90;0.90;;;;;;;;;;5096016;28;20203;-61
2022/07/05 04:59:24;;;;;;;0.90;0.90;;;;;;;;;;5096479;28;20243;-61
2022/07/05 05:01:51;;;;;;;1.67;1.10;;;;;;;;;;5095027;28;20246;-61
2022/07/05 05:04:19;;;;;;;1.20;1.00;;;;;;;;;;5095254;28;20224;-60
2022/07/05 05:06:48;;;;;;;1.00;0.90;;;;;;;;;;5095620;28;20563;-60
2022/07/05 05:09:15;;;;;;;0.80;0.80;;;;;;;;;;5095171;28;20242;-61
2022/07/05 05:11:43;;;;;;;0.90;0.90;;;;;;;;;;5095101;28;20212;-60
2022/07/05 05:14:11;;;;;;;0.98;0.90;;;;;;;;;;5095816;28;20277;-60
2022/07/05 05:16:38;;;;;;;1.77;1.17;;;;;;;;;;5094612;28;20203;-60
2022/07/05 05:19:06;;;;;;;1.90;1.02;;;;;;;;;;5095429;28;20204;-60
2022/07/05 05:21:33;;;;;;;1.15;1.00;;;;;;;;;;5096104;28;20238;-61
2022/07/05 05:24:03;;;;;;;2.25;1.15;;;;;;;;;;5095136;28;20229;-61
2022/07/05 05:26:30;;;;;;;1.20;1.10;;;;;;;;;;5095495;28;20250;-60
2022/07/05 05:28:58;;;;;;;1.13;0.90;;;;;;;;;;5095250;28;20262;-61
2022/07/05 05:31:25;;;;;;;0.93;0.93;;;;;;;;;;5095500;28;20617;-60
2022/07/05 05:33:52;;;;;;;1.35;1.02;;;;;;;;;;5095491;28;20260;-60
2022/07/05 05:36:20;;;;;;;1.13;1.00;;;;;;;;;;5094470;28;20208;-62
2022/07/05 05:38:48;;;;;;;2.10;1.30;;;;;;;;;;5094861;28;20254;-60
2022/07/05 05:41:17;;;;;;;1.00;1.00;;;;;;;;;;5094798;28;20261;-60
2022/07/05 05:43:44;;;;;;;1.17;1.08;;;;;;;;;;5094099;28;20242;-61
2022/07/05 05:46:12;;;;;;;1.23;1.00;;;;;;;;;;5094773;28;20271;-60
2022/07/05 05:48:40;;;;;;;3.13;1.23;;;;;;;;;;5093672;28;20294;-61
2022/07/05 05:51:08;;;;;;;1.75;1.17;;;;;;;;;;5094816;28;20202;-60
2022/07/05 05:53:36;;;;;;;1.17;1.08;;;;;;;;;;5054619;28;20250;-61
2022/07/05 05:56:03;;;;;;;1.95;1.05;;;;;;;;;;5054922;28;20205;-61
2022/07/05 05:58:32;;;;;;;2.17;1.25;;;;;;;;;;5055205;28;20236;-60
2022/07/05 06:01:00;;;;;;;3.50;1.17;;;;;;;;;;5054064;28;20208;-59
2022/07/05 06:03:28;;;;;;;1.45;1.00;;;;;;;;;;5053692;28;20248;-59
2022/07/05 06:05:56;;;;;;;1.30;1.00;;;;;;;;;;5053641;28;20371;-59
2022/07/05 06:08:24;;;;;;;1.40;1.15;;;;;;;;;;5054358;28;20255;-59
2022/07/05 06:10:52;;;;;;;1.98;1.05;;;;;;;;;;5054486;28;20591;-59
2022/07/05 06:13:19;;;;;;;1.33;1.23;;;;;;;;;;5053702;28;20858;-60
2022/07/05 06:15:48;;;;;;;1.30;1.20;;;;;;;;;;5053649;28;20268;-59
2022/07/05 06:18:16;;;;;;;1.77;1.27;;;;;;;;;;5054270;28;20237;-60
2022/07/05 06:20:43;;;;;;;1.48;1.38;;;;;;;;;;5054132;28;20193;-60
2022/07/05 06:23:10;;;;;;;1.48;1.02;;;;;;;;;;5052682;28;20232;-60
2022/07/05 06:25:38;;;;;;;0.98;0.93;;;;;;;;;;5052980;28;20204;-59
2022/07/05 06:28:06;;;;;;;1.20;1.10;;;;;;;;;;5053579;28;20283;-60
2022/07/05 06:30:35;;;;;;;1.38;1.15;;;;;;;;;;5053344;28;20274;-60
2022/07/05 06:33:04;;;;;;;1.88;1.00;;;;;;;;;;5052741;28;20255;-60
2022/07/05 06:35:32;;;;;;;1.35;1.23;;;;;;;;;;5053123;28;20241;-60
2022/07/05 06:38:00;;;;;;;1.30;1.20;;;;;;;;;;5054689;28;20240;-60
2022/07/05 06:40:29;;;;;;;1.23;1.10;;;;;;;;;;5054429;28;20255;-61
2022/07/05 06:42:58;;;;;;;2.25;1.20;;;;;;;;;;5053198;28;20721;-61
2022/07/05 06:45:26;;;;;;;1.20;1.10;;;;;;;;;;5053357;28;20258;-60
2022/07/05 06:47:57;;;;;;;1.55;1.08;;;;;;;;;;5053873;28;20197;-60
2022/07/05 06:50:26;;;;;;;2.00;1.13;;;;;;;;;;5054429;28;20256;-61
2022/07/05 06:52:54;;;;;;;1.10;1.00;;;;;;;;;;5082321;28;20363;-60
2022/07/05 06:55:23;;;;;;;1.42;1.23;;;;;;;;;;5093725;28;20225;-60
2022/07/05 06:57:51;;;;;;;1.95;0.88;;;;;;;;;;5093682;28;20859;-61
2022/07/05 07:00:18;;;;;;;1.38;1.08;;;;;;;;;;5095807;28;20244;-60
2022/07/05 07:02:46;;;;;;;2.20;1.20;;;;;;;;;;5097099;28;20211;-61
2022/07/05 07:05:13;;;;;;;2.15;1.20;;;;;;;;;;5098121;28;20214;-60
2022/07/05 07:10:27;;;;;;;1.30;1.17;;;;;;;;;;5098012;28;20353;-61
2022/07/05 07:12:56;;;;;;;1.00;0.88;;;;;;;;;;5097881;28;20316;-61
2022/07/05 07:15:23;;;;;;;1.38;1.25;;;;;;;;;;5098293;28;20211;-60
2022/07/05 07:17:51;;;;;;;2.05;1.27;;;;;;;;;;5097434;28;20592;-60
2022/07/05 07:20:19;;;;;;;1.73;1.00;;;;;;;;;;5097299;28;20687;-60
2022/07/05 07:22:47;;;;;;;1.30;1.08;;;;;;;;;;5096753;28;20199;-61
2022/07/05 07:25:15;;;;;;;1.67;1.30;;;;;;;;;;5097926;28;20207;-60
2022/07/05 07:27:44;;;;;;;1.58;1.00;;;;;;;;;;5097491;28;20776;-60
2022/07/05 07:30:13;;;;;;;1.10;1.00;;;;;;;;;;5097471;28;20214;-61
2022/07/05 07:32:40;;;;;;;2.15;0.90;;;;;;;;;;5097184;28;20238;-60
2022/07/05 07:35:08;;;;;;;1.52;1.13;;;;;;;;;;5096726;28;20262;-62
2022/07/05 07:37:36;;;;;;;1.20;1.10;;;;;;;;;;5097099;28;20565;-60
2022/07/05 07:40:05;;;;;;;1.58;1.30;;;;;;;;;;5096667;28;20250;-61
2022/07/05 07:42:33;;;;;;;1.70;1.27;;;;;;;;;;5096226;28;20276;-61
2022/07/05 07:45:03;;;;;;;2.75;1.30;;;;;;;;;;5096495;28;20227;-61
2022/07/05 07:47:30;;;;;;;1.65;1.20;;;;;;;;;;5095805;28;20203;-61
2022/07/05 07:49:58;;;;;;;1.45;1.20;;;;;;;;;;5096105;28;20261;-59
2022/07/05 07:52:26;;;;;;;1.48;1.10;;;;;;;;;;5095804;28;20642;-60
2022/07/05 07:54:53;;;;;;;1.50;1.25;;;;;;;;;;5096294;28;20238;-61
2022/07/05 07:57:22;;;;;;;1.23;1.13;;;;;;;;;;5096717;28;20207;-60
2022/07/05 07:59:49;;;;;;;1.55;1.30;;;;;;;;;;5096367;28;20298;-60
2022/07/05 08:02:20;;;;;;;1.55;1.20;;;;;;;;;;5096811;28;20215;-61
2022/07/05 08:04:48;;;;;;;1.70;1.02;;;;;;;;;;5095765;28;20314;-59
2022/07/05 08:07:17;;;;;;;1.60;1.25;;;;;;;;;;5096811;28;20216;-60
2022/07/05 08:09:45;;;;;;;1.15;1.05;;;;;;;;;;5096635;28;20203;-60
2022/07/05 08:12:13;;;;;;;1.70;1.55;;;;;;;;;;5095807;28;20508;-59
2022/07/05 08:14:42;;;;;;;2.33;1.30;;;;;;;;;;5096123;28;20234;-59
2022/07/05 08:17:09;;;;;;;2.08;1.30;;;;;;;;;;5095585;28;20319;-60
2022/07/05 08:22:22;;;;;;;2.13;1.23;;;;;;;;;;5096930;28;20194;-61
2022/07/05 08:24:50;;;;;;;1.17;1.08;;;;;;;;;;5096283;28;20234;-60
2022/07/05 08:27:18;;;;;;;1.92;1.10;;;;;;;;;;5096758;28;20265;-60
2022/07/05 08:29:47;;;;;;;1.10;1.10;;;;;;;;;;5096781;28;20200;-60
2022/07/05 08:32:14;;;;;;;1.83;1.35;;;;;;;;;;5095920;28;20246;-60
2022/07/05 08:34:42;;;;;;;1.30;1.10;;;;;;;;;;5096096;28;20278;-60
2022/07/05 08:37:10;;;;;;;1.45;1.15;;;;;;;;;;5094961;28;20735;-60
2022/07/05 08:39:37;;;;;;;1.98;1.27;;;;;;;;;;5094685;28;20196;-60
2022/07/05 08:42:10;;;;;;;1.10;1.00;;;;;;;;;;5095481;28;20572;-60
2022/07/05 08:44:39;;;;;;;1.27;1.17;;;;;;;;;;5095419;28;20500;-60
2022/07/05 08:47:10;;;;;;;1.48;1.30;;;;;;;;;;5094586;28;20204;-60
2022/07/05 08:49:40;;;;;;;1.17;1.08;;;;;;;;;;5095400;28;20215;-60
2022/07/05 08:52:08;;;;;;;1.23;1.13;;;;;;;;;;5095252;28;20267;-60
2022/07/05 08:54:38;;;;;;;1.67;1.30;;;;;;;;;;5095041;28;20509;-60
2022/07/05 08:57:06;;;;;;;2.33;1.20;;;;;;;;;;5094805;28;20203;-61
2022/07/05 08:59:33;;;;;;;1.42;1.30;;;;;;;;;;5094911;28;20276;-59
2022/07/05 09:02:02;;;;;;;2.35;1.30;;;;;;;;;;5094532;28;20594;-59
2022/07/05 09:04:32;;;;;;;1.30;1.20;;;;;;;;;;5095035;28;20234;-60
2022/07/05 09:07:04;;;;;;;1.88;1.20;;;;;;;;;;5094400;28;20210;-59
2022/07/05 09:09:34;;;;;;;1.55;1.40;;;;;;;;;;5094697;28;20264;-59
2022/07/05 09:12:01;;;;;;;1.90;1.17;;;;;;;;;;5095177;28;20298;-59
2022/07/05 09:14:30;;;;;;;1.20;1.10;;;;;;;;;;5095123;28;20195;-60
2022/07/05 09:16:58;;;;;;;2.47;1.20;;;;;;;;;;5095731;28;20204;-59
2022/07/05 09:19:25;;;;;;;1.60;1.10;;;;;;;;;;5094764;28;20213;-60
2022/07/05 09:22:04;;;;;;;1.63;1.10;;;;;;;;;;5094347;28;20215;-60
2022/07/05 09:24:31;;;;;;;1.90;1.30;;;;;;;;;;5094064;28;20253;-60
2022/07/05 09:27:04;;;;;;;1.63;1.20;;;;;;;;;;5094203;28;20598;-60
2022/07/05 09:29:32;;;;;;;1.63;1.30;;;;;;;;;;5091989;28;20200;-59
2022/07/05 09:31:59;;;;;;;1.30;1.02;;;;;;;;;;5093957;28;20231;-60
2022/07/05 09:34:29;;;;;;;2.47;1.50;;;;;;;;;;5094859;28;20229;-59
2022/07/05 09:36:57;;;;;;;1.67;1.30;;;;;;;;;;5094714;28;20576;-59
2022/07/05 09:39:39;;;;;;;1.92;1.10;;;;;;;;;;5093223;28;20203;-59
2022/07/05 09:42:20;;;;;;;1.20;1.10;;;;;;;;;;5094486;28;20486;-58
2022/07/05 09:44:48;;;;;;;1.13;1.05;;;;;;;;;;5094243;28;20285;-60
2022/07/05 09:47:16;;;;;;;1.13;1.02;;;;;;;;;;5093384;28;20265;-59
2022/07/05 09:49:44;;;;;;;1.10;1.00;;;;;;;;;;5094886;28;20211;-58
2022/07/05 09:52:12;;;;;;;1.50;1.15;;;;;;;;;;5094935;28;20306;-58
2022/07/05 09:54:41;;;;;;;1.65;1.20;;;;;;;;;;5094646;28;20592;-59
2022/07/05 09:57:10;;;;;;;1.45;1.00;;;;;;;;;;5094327;28;20292;-58
2022/07/05 09:59:37;;;;;;;2.15;1.30;;;;;;;;;;5094604;28;20218;-58
2022/07/05 10:02:05;;;;;;;1.38;1.10;;;;;;;;;;5094521;28;20234;-60
2022/07/05 10:04:33;;;;;;;1.40;1.30;;;;;;;;;;5093691;28;20258;-58
2022/07/05 10:07:00;;;;;;;1.20;1.20;;;;;;;;;;5094529;28;20211;-58
2022/07/05 10:09:28;;;;;;;1.98;1.30;;;;;;;;;;5094380;28;20203;-58
2022/07/05 10:12:01;;;;;;;1.40;1.30;;;;;;;;;;5093956;28;20218;-59
2022/07/05 10:14:29;;;;;;;1.30;1.15;;;;;;;;;;5094530;28;20208;-59
2022/07/05 10:17:02;;;;;;;1.23;1.13;;;;;;;;;;5093371;28;20249;-59
2022/07/05 10:19:32;;;;;;;1.38;1.17;;;;;;;;;;5092439;28;20239;-59
2022/07/05 10:22:00;;;;;;;1.23;1.13;;;;;;;;;;5094224;28;20234;-60
2022/07/05 10:24:27;;;;;;;1.35;1.25;;;;;;;;;;5093723;28;20269;-60
2022/07/05 10:26:57;;;;;;;1.50;1.00;;;;;;;;;;5093215;28;20242;-59
2022/07/05 10:29:24;;;;;;;1.20;1.10;;;;;;;;;;5093179;28;20204;-59
2022/07/05 10:31:52;;;;;;;1.45;1.17;;;;;;;;;;5092958;28;20291;-58
2022/07/05 10:34:20;;;;;;;1.65;1.30;;;;;;;;;;5095208;28;20250;-59
2022/07/05 10:36:48;;;;;;;1.60;1.20;;;;;;;;;;5097790;28;20215;-59
2022/07/05 10:39:16;;;;;;;1.13;1.00;;;;;;;;;;5098049;28;20634;-59
2022/07/05 10:41:44;;;;;;;1.15;1.08;;;;;;;;;;5096867;28;20593;-58
2022/07/05 10:44:13;;;;;;;1.77;1.10;;;;;;;;;;5097138;28;20249;-58
2022/07/05 10:46:43;;;;;;;2.35;1.30;;;;;;;;;;5097154;28;20207;-58
2022/07/05 10:49:15;;;;;;;1.40;1.30;;;;;;;;;;5097575;28;20200;-59
2022/07/05 10:51:42;;;;;;;1.88;1.23;;;;;;;;;;5097228;28;20603;-59
2022/07/05 10:54:10;;;;;;;1.10;1.10;;;;;;;;;;5097928;28;20236;-59
2022/07/05 10:56:38;;;;;;;1.20;1.10;;;;;;;;;;5098761;28;20227;-59
2022/07/05 10:59:09;;;;;;;1.52;1.27;;;;;;;;;;5096802;28;20207;-58
2022/07/05 11:01:39;;;;;;;1.15;1.10;;;;;;;;;;5096659;28;20267;-59
2022/07/05 11:04:26;;;;;;;1.30;1.20;;;;;;;;;;5096892;28;20325;-59
2022/07/05 11:06:53;;;;;;;1.38;1.10;;;;;;;;;;5083226;28;20265;-59
2022/07/05 11:09:22;;;;;;;1.55;1.27;;;;;;;;;;5097162;28;20234;-59
2022/07/05 11:12:04;;;;;;;2.45;1.30;;;;;;;;;;5096575;28;20265;-59
2022/07/05 11:14:32;;;;;;;1.50;1.40;;;;;;;;;;5097023;28;20199;-59
2022/07/05 11:17:16;;;;;;;1.35;1.25;;;;;;;;;;5096755;28;20227;-59
2022/07/05 11:20:02;;;;;;;1.40;1.30;;;;;;;;;;5096864;28;20204;-59
2022/07/05 11:22:30;;;;;;;1.27;1.20;;;;;;;;;;5096404;28;20257;-59
2022/07/05 11:24:58;;;;;;;1.40;1.23;;;;;;;;;;5096435;28;20231;-59
2022/07/05 11:27:26;;;;;;;1.40;1.30;;;;;;;;;;5096066;28;20211;-59
2022/07/05 11:29:54;;;;;;;1.70;1.30;;;;;;;;;;5095821;28;20253;-59
2022/07/05 11:32:23;;;;;;;1.02;0.93;;;;;;;;;;5096249;28;20239;-58
2022/07/05 11:34:51;;;;;;;1.30;1.17;;;;;;;;;;5096504;28;20200;-58
2022/07/05 11:37:21;;;;;;;1.45;1.35;;;;;;;;;;5096646;28;20204;-58
2022/07/05 11:40:09;;;;;;;1.40;1.17;;;;;;;;;;5096170;28;20211;-60
2022/07/05 11:42:39;;;;;;;1.30;1.20;;;;;;;;;;5096247;28;20203;-59
2022/07/05 11:45:07;;;;;;;1.00;1.00;;;;;;;;;;5095377;28;20231;-59
2022/07/05 11:47:37;;;;;;;1.33;1.23;;;;;;;;;;5096458;28;20204;-59
2022/07/05 11:50:05;;;;;;;1.40;1.30;;;;;;;;;;5096826;28;20315;-59
2022/07/05 11:52:33;;;;;;;1.75;1.20;;;;;;;;;;5096338;28;20274;-59
2022/07/05 11:55:02;;;;;;;1.35;1.17;;;;;;;;;;5096222;28;20275;-59
2022/07/05 11:57:29;;;;;;;1.55;1.25;;;;;;;;;;5096102;28;20207;-59
2022/07/05 11:59:57;;;;;;;1.15;1.10;;;;;;;;;;5096145;28;20301;-59
2022/07/05 12:02:24;;;;;;;1.30;1.20;;;;;;;;;;5095826;28;20302;-59
2022/07/05 12:04:53;;;;;;;1.05;0.95;;;;;;;;;;5095504;28;20220;-59
2022/07/05 12:07:28;;;;;;;1.85;1.23;;;;;;;;;;5095600;28;20610;-59
2022/07/05 12:12:44;;;;;;;2.30;1.20;;;;;;;;;;5095640;28;20194;-59
2022/07/05 12:15:13;;;;;;;1.10;1.10;;;;;;;;;;5095595;28;20297;-59
2022/07/05 12:17:42;;;;;;;2.17;1.10;;;;;;;;;;5096068;28;20238;-59
2022/07/05 12:20:12;;;;;;;1.23;1.10;;;;;;;;;;5095002;28;20203;-59
2022/07/05 12:22:41;;;;;;;1.75;1.10;;;;;;;;;;5094918;28;20234;-59
2022/07/05 12:25:09;;;;;;;1.30;1.20;;;;;;;;;;5094808;28;20259;-59
2022/07/05 12:27:38;;;;;;;1.20;1.10;;;;;;;;;;5096375;28;20246;-59
2022/07/05 12:30:06;;;;;;;1.17;1.10;;;;;;;;;;5096620;28;20235;-58
2022/07/05 12:32:36;;;;;;;1.48;1.38;;;;;;;;;;5095724;28;20235;-59
2022/07/05 12:35:04;;;;;;;1.67;1.20;;;;;;;;;;5094804;28;20226;-59
2022/07/05 12:37:33;;;;;;;1.30;1.20;;;;;;;;;;5096083;28;20234;-59
2022/07/05 12:40:05;;;;;;;1.50;1.40;;;;;;;;;;5094584;28;20207;-59
2022/07/05 12:42:33;;;;;;;1.40;1.30;;;;;;;;;;5096107;28;20575;-59
2022/07/05 12:45:14;;;;;;;1.20;1.10;;;;;;;;;;5095134;28;20740;-59
2022/07/05 12:47:53;;;;;;;1.40;1.27;;;;;;;;;;5095033;28;20710;-59
2022/07/05 12:50:20;;;;;;;1.08;1.05;;;;;;;;;;5095202;28;20502;-59
2022/07/05 12:58:01;;;;;;;2.08;1.30;;;;;;;;;;5094553;28;20243;-59
2022/07/05 12:58:35;;;;;;;2.75;1.30;;;;;;;;;;5093511;28;20183;-59
2022/07/05 13:01:02;;;;;;;1.35;1.25;;;;;;;;;;5095496;28;20207;-61
2022/07/05 13:03:30;;;;;;;1.40;1.30;;;;;;;;;;5095353;28;20667;-59
2022/07/05 13:06:04;;;;;;;1.25;1.20;;;;;;;;;;5095225;28;20227;-60
2022/07/05 13:08:33;;;;;;;1.30;1.20;;;;;;;;;;5094638;28;20537;-59
2022/07/05 13:11:00;;;;;;;1.92;1.20;;;;;;;;;;5094126;28;20265;-59
2022/07/05 13:13:28;;;;;;;1.30;1.20;;;;;;;;;;5094796;28;20210;-60
2022/07/05 13:15:55;;;;;;;1.10;1.10;;;;;;;;;;5094264;28;20208;-60
2022/07/05 13:18:27;;;;;;;1.40;1.30;;;;;;;;;;5094878;28;20242;-58
2022/07/05 13:20:54;;;;;;;1.40;1.30;;;;;;;;;;5094011;28;20636;-59
2022/07/05 13:23:22;;;;;;;1.48;1.38;;;;;;;;;;5093515;28;20235;-60
2022/07/05 13:25:51;;;;;;;2.47;1.23;;;;;;;;;;5093784;28;20219;-59
2022/07/05 13:28:18;;;;;;;1.52;1.42;;;;;;;;;;5093926;28;20306;-59
2022/07/05 13:30:46;;;;;;;1.48;1.10;;;;;;;;;;5093808;28;20229;-60
2022/07/05 13:33:13;;;;;;;1.40;1.30;;;;;;;;;;5093755;28;20227;-58
2022/07/05 13:35:41;;;;;;;1.75;1.27;;;;;;;;;;5093312;28;20261;-58
2022/07/05 13:38:08;;;;;;;1.90;1.23;;;;;;;;;;5094448;28;20606;-58
2022/07/05 13:40:36;;;;;;;1.33;1.23;;;;;;;;;;5073994;28;20266;-59
2022/07/05 13:43:05;;;;;;;2.17;1.40;;;;;;;;;;5073599;28;20239;-60
2022/07/05 13:45:33;;;;;;;1.85;1.33;;;;;;;;;;5073643;28;20260;-59
2022/07/05 13:48:00;;;;;;;1.42;1.20;;;;;;;;;;5074020;28;20246;-59
2022/07/05 13:50:35;;;;;;;1.67;1.13;;;;;;;;;;5074302;28;20200;-61
2022/07/05 13:53:03;;;;;;;4.20;1.50;;;;;;;;;;5091803;28;20223;-58
2022/07/05 13:55:31;;;;;;;1.30;1.20;;;;;;;;;;5093582;28;20253;-61
2022/07/05 13:57:59;;;;;;;1.58;1.30;;;;;;;;;;5093604;28;20207;-58
2022/07/05 14:00:28;;;;;;;1.50;1.40;;;;;;;;;;5093201;28;20298;-59
2022/07/05 14:02:55;;;;;;;1.65;1.38;;;;;;;;;;5093583;28;20250;-58
2022/07/05 14:05:23;;;;;;;1.42;1.25;;;;;;;;;;5094465;28;20227;-58
2022/07/05 14:07:51;;;;;;;1.25;1.20;;;;;;;;;;5093692;28;20264;-58
2022/07/05 14:10:18;;;;;;;1.73;1.33;;;;;;;;;;5098201;28;20211;-59
2022/07/05 14:12:46;;;;;;;1.63;1.10;;;;;;;;;;5097909;28;20211;-61
2022/07/05 14:15:13;;;;;;;1.70;1.50;;;;;;;;;;5098157;28;20229;-58
2022/07/05 14:17:42;;;;;;;2.10;1.40;;;;;;;;;;5098015;28;20230;-59
2022/07/05 14:20:10;;;;;;;1.33;1.23;;;;;;;;;;5097872;28;20239;-59
2022/07/05 14:22:38;;;;;;;1.75;1.20;;;;;;;;;;5095420;28;20203;-59
2022/07/05 14:25:06;;;;;;;1.42;1.33;;;;;;;;;;5094464;28;20598;-58
2022/07/05 14:27:34;;;;;;;2.50;1.45;;;;;;;;;;5097011;28;20214;-59
2022/07/05 14:30:02;;;;;;;1.45;1.35;;;;;;;;;;5095485;28;20203;-59
2022/07/05 14:32:30;;;;;;;1.40;1.30;;;;;;;;;;5095289;28;20215;-58
2022/07/05 14:34:59;;;;;;;1.48;1.38;;;;;;;;;;5094884;28;20268;-61
2022/07/05 14:37:26;;;;;;;1.70;1.13;;;;;;;;;;5095077;28;20231;-58
2022/07/05 14:39:54;;;;;;;2.15;1.38;;;;;;;;;;5094802;28;20235;-59
2022/07/05 14:42:21;;;;;;;1.67;1.30;;;;;;;;;;5093361;28;20208;-59
2022/07/05 14:44:49;;;;;;;2.28;1.50;;;;;;;;;;5095397;28;20280;-58
2022/07/05 14:47:16;;;;;;;2.50;1.23;;;;;;;;;;5094211;28;20383;-67
2022/07/05 14:49:44;;;;;;;1.38;1.10;;;;;;;;;;5094487;28;20303;-60
2022/07/05 14:52:13;;;;;;;1.77;1.15;;;;;;;;;;5095189;28;20626;-59
2022/07/05 14:54:40;;;;;;;2.17;1.20;;;;;;;;;;5094586;28;20292;-59
2022/07/05 14:57:08;;;;;;;1.30;1.20;;;;;;;;;;5094952;28;20261;-60
2022/07/05 14:59:35;;;;;;;1.40;1.30;;;;;;;;;;5095058;28;20216;-60
2022/07/05 15:02:03;;;;;;;1.40;1.30;;;;;;;;;;5093613;28;20272;-59